createdAt,value
2018-05-10T00:00:38.123Z,59.67
2018-05-10T00:03:07.904Z,68.23
2018-05-10T00:09:09.096Z,102.87
2018-05-10T00:11:38.697Z,97.80
2018-05-10T00:14:11.520Z,94.00
2018-05-10T00:16:42.957Z,84.27
2018-05-10T00:22:53.324Z,66.37
2018-05-10T00:25:29.503Z,61.33
2018-05-10T00:28:40.216Z,74.10
2018-05-10T00:31:12.681Z,61.53
2018-05-10T00:33:47.969Z,65.63
2018-05-10T00:36:23.816Z,65.03
2018-05-10T00:38:55.213Z,73.13
2018-05-10T00:41:26.287Z,74.37
2018-05-10T00:47:33.303Z,79.73
2018-05-10T00:50:14.749Z,121.97
2018-05-10T00:52:47.518Z,108.43
2018-05-10T00:55:21.118Z,119.43
2018-05-10T00:57:52.862Z,102.30
2018-05-10T01:00:22.782Z,92.77
2018-05-10T01:02:53.517Z,108.47
2018-05-10T01:05:25.854Z,122.83
2018-05-10T01:08:00.416Z,134.43
2018-05-10T01:10:31.241Z,145.37
2018-05-10T01:13:01.089Z,116.43
2018-05-10T01:15:31.296Z,110.80
2018-05-10T01:18:01.489Z,117.33
2018-05-10T01:20:32.864Z,111.63
2018-05-10T01:23:03.419Z,111.53
2018-05-10T01:26:03.266Z,90.10
2018-05-10T01:28:34.991Z,93.53
2018-05-10T01:31:04.630Z,91.37
2018-05-10T01:33:34.806Z,91.13
2018-05-10T01:36:16.271Z,105.63
2018-05-10T01:38:45.878Z,100.30
2018-05-10T01:44:39.292Z,114.50
2018-05-10T01:47:09.096Z,106.60
2018-05-10T01:49:39.803Z,227.33
2018-05-10T01:52:12.539Z,105.07
2018-05-10T01:54:42.373Z,105.07
2018-05-10T01:57:14.181Z,107.70
2018-05-10T01:59:44.239Z,109.17
2018-05-10T02:02:14.857Z,105.10
2018-05-10T02:04:44.706Z,161.40
2018-05-10T02:10:37.237Z,98.03
2018-05-10T02:13:12.549Z,102.83
2018-05-10T02:15:44.834Z,106.30
2018-05-10T02:18:14.759Z,109.90
2018-05-10T02:24:09.021Z,110.67
2018-05-10T02:26:39.898Z,102.50
2018-05-10T02:29:14.762Z,104.07
2018-05-10T02:31:45.291Z,105.60
2018-05-10T02:37:38.211Z,94.73
2018-05-10T02:40:07.914Z,113.87
2018-05-10T02:42:37.530Z,112.20
2018-05-10T02:45:07.522Z,142.53
2018-05-10T02:47:38.521Z,158.07
2018-05-10T02:50:08.039Z,186.47
2018-05-10T02:52:39.849Z,224.73
2018-05-10T02:55:16.208Z,207.77
2018-05-10T02:57:45.933Z,172.57
2018-05-10T03:00:25.083Z,161.83
2018-05-10T03:02:54.645Z,184.27
2018-05-10T03:05:24.681Z,111.60
2018-05-10T03:07:58.991Z,99.23
2018-05-10T03:10:29.757Z,111.47
2018-05-10T03:13:01.369Z,165.57
2018-05-10T03:18:53.270Z,116.53
2018-05-10T04:44:30.596Z,106.50
2018-05-10T04:47:01.000Z,130.50
2018-05-10T04:49:30.294Z,157.13
2018-05-10T04:52:00.278Z,195.60
2018-05-10T04:54:34.292Z,119.70
2018-05-10T04:57:03.686Z,103.87
2018-05-10T05:00:20.320Z,93.97
2018-05-10T05:02:51.290Z,94.17
2018-05-10T05:05:21.092Z,87.30
2018-05-10T05:07:51.006Z,71.57
2018-05-10T05:13:52.121Z,65.90
2018-05-10T05:16:22.488Z,77.20
2018-05-10T05:18:52.138Z,74.73
2018-05-10T05:21:22.488Z,54.17
2018-05-10T05:23:52.294Z,51.40
2018-05-10T05:26:21.891Z,51.07
2018-05-10T05:28:51.471Z,50.07
2018-05-10T05:31:21.119Z,52.27
2018-05-10T05:33:51.472Z,47.57
2018-05-10T05:36:22.820Z,46.33
2018-05-10T05:38:52.402Z,45.50
2018-05-10T05:41:22.011Z,46.03
2018-05-10T05:43:52.012Z,50.77
2018-05-10T05:46:21.612Z,43.63
2018-05-10T05:48:51.246Z,42.23
2018-05-10T05:51:20.944Z,40.03
2018-05-10T05:53:50.600Z,42.43
2018-05-10T05:56:20.194Z,43.27
2018-05-10T06:02:11.224Z,38.00
2018-05-10T06:04:40.744Z,42.33
2018-05-10T06:07:10.280Z,46.23
2018-05-10T06:09:39.838Z,38.47
2018-05-10T06:12:09.339Z,46.47
2018-05-10T06:14:38.856Z,43.73
2018-05-10T06:17:08.460Z,44.17
2018-05-10T06:19:37.988Z,40.37
2018-05-10T06:22:10.033Z,44.17
2018-05-10T06:24:39.597Z,44.83
2018-05-10T06:27:12.070Z,57.93
2018-05-10T06:29:44.894Z,74.27
2018-05-10T06:32:14.469Z,63.13
2018-05-10T06:34:47.164Z,71.90
2018-05-10T06:37:17.251Z,65.97
2018-05-10T06:39:47.367Z,60.30
2018-05-10T06:42:16.953Z,68.97
2018-05-10T06:44:46.786Z,60.07
2018-05-10T06:50:48.014Z,50.80
2018-05-10T06:56:48.385Z,171.33
2018-05-10T06:59:18.751Z,66.27
2018-05-10T07:01:48.423Z,62.27
2018-05-10T07:04:19.454Z,65.30
2018-05-10T07:06:50.085Z,61.80
2018-05-10T07:09:20.811Z,73.60
2018-05-10T07:29:19.949Z,81.03
2018-05-10T08:11:01.134Z,101.90
2018-05-10T08:20:48.176Z,79.83
2018-05-10T08:23:19.025Z,91.73
2018-05-10T08:25:48.977Z,94.30
2018-05-10T08:28:20.281Z,104.93
2018-05-10T08:30:50.225Z,110.00
2018-05-10T08:33:20.805Z,138.00
2018-05-10T08:35:51.613Z,126.13
2018-05-10T08:38:21.401Z,117.97
2018-05-10T08:40:51.212Z,127.47
2018-05-10T08:43:20.885Z,114.23
2018-05-10T08:45:50.747Z,90.53
2018-05-10T08:48:20.585Z,106.33
2018-05-10T08:50:51.058Z,106.57
2018-05-10T08:53:20.830Z,111.40
2018-05-10T08:55:50.537Z,96.83
2018-05-10T08:58:21.116Z,94.93
2018-05-10T09:00:51.407Z,84.43
2018-05-10T09:03:21.247Z,84.47
2018-05-10T09:05:51.181Z,75.87
2018-05-10T09:08:21.004Z,90.53
2018-05-10T09:10:50.917Z,92.00
2018-05-10T09:13:20.592Z,94.83
2018-05-10T09:19:11.281Z,101.93
2018-05-10T09:21:40.798Z,118.13
2018-05-10T09:24:10.363Z,113.93
2018-05-10T09:26:39.973Z,100.63
2018-05-10T09:29:09.411Z,82.90
2018-05-10T09:31:38.973Z,91.47
2018-05-10T09:34:08.628Z,97.97
2018-05-10T09:36:38.028Z,87.20
2018-05-10T09:39:07.597Z,93.20
2018-05-10T09:41:37.120Z,80.83
2018-05-10T09:44:06.635Z,97.00
2018-05-10T09:46:36.073Z,91.40
2018-05-10T09:49:06.213Z,104.53
2018-05-10T09:51:35.617Z,112.03
2018-05-10T09:54:05.252Z,118.03
2018-05-10T09:56:34.748Z,112.90
2018-05-10T09:59:04.208Z,131.67
2018-05-10T10:01:33.997Z,138.97
2018-05-10T10:04:03.542Z,132.93
2018-05-10T10:06:33.047Z,140.33
2018-05-10T10:09:02.541Z,143.10
2018-05-10T10:11:32.086Z,140.43
2018-05-10T10:14:01.622Z,147.13
2018-05-10T10:16:32.049Z,141.37
2018-05-10T10:19:01.505Z,145.10
2018-05-10T10:21:30.981Z,149.57
2018-05-10T10:24:00.546Z,147.60
2018-05-10T10:26:30.740Z,145.23
2018-05-10T10:29:00.356Z,150.80
2018-05-10T10:31:29.723Z,128.77
2018-05-10T10:33:59.172Z,136.70
2018-05-10T10:36:28.667Z,140.03
2018-05-10T10:38:58.045Z,135.27
2018-05-10T10:41:27.491Z,127.93
2018-05-10T10:43:57.752Z,135.80
2018-05-10T10:46:27.197Z,131.37
2018-05-10T10:48:56.592Z,139.67
2018-05-10T10:51:26.132Z,138.43
2018-05-10T10:53:55.540Z,143.83
2018-05-10T10:56:25.003Z,134.70
2018-05-10T10:58:54.440Z,140.30
2018-05-10T11:01:23.929Z,140.93
2018-05-10T11:03:53.279Z,128.37
2018-05-10T11:06:22.812Z,135.17
2018-05-10T11:08:52.259Z,137.60
2018-05-10T11:11:22.503Z,143.03
2018-05-10T11:13:51.948Z,153.70
2018-05-10T11:16:21.321Z,153.60
2018-05-10T11:18:50.888Z,166.13
2018-05-10T11:21:20.349Z,175.33
2018-05-10T11:23:49.780Z,167.93
2018-05-10T11:26:19.124Z,185.43
2018-05-10T11:28:48.636Z,196.10
2018-05-10T11:31:18.618Z,265.40
2018-05-10T11:33:48.219Z,335.97
2018-05-10T11:39:49.050Z,332.37
2018-05-10T11:42:18.593Z,340.00
2018-05-10T11:44:48.169Z,362.60
2018-05-10T11:47:19.107Z,398.90
2018-05-10T11:53:12.988Z,286.20
2018-05-10T11:55:42.424Z,258.37
2018-05-10T11:58:11.981Z,250.43
2018-05-10T12:00:41.713Z,258.53
2018-05-10T12:03:11.136Z,257.17
2018-05-10T12:05:40.557Z,269.90
2018-05-10T12:08:10.084Z,309.37
2018-05-10T12:10:39.568Z,308.63
2018-05-10T12:13:09.685Z,288.00
2018-05-10T12:15:39.410Z,299.10
2018-05-10T12:18:08.860Z,297.60
2018-05-10T12:20:38.319Z,304.47
2018-05-10T12:23:07.825Z,292.83
2018-05-10T12:25:37.348Z,287.43
2018-05-10T12:28:06.782Z,309.23
2018-05-10T12:30:36.477Z,280.37
2018-05-10T12:33:05.948Z,251.60
2018-05-10T12:35:35.386Z,304.13
2018-05-10T12:38:04.892Z,326.40
2018-05-10T12:40:40.879Z,266.57
2018-05-10T12:43:17.464Z,273.77
2018-05-10T12:45:48.907Z,236.43
2018-05-10T12:48:22.835Z,222.93
2018-05-10T12:50:58.981Z,208.07
2018-05-10T12:53:40.767Z,178.23
2018-05-10T12:56:16.917Z,127.63
2018-05-10T12:58:54.650Z,95.17
2018-05-10T13:01:29.828Z,97.57
2018-05-10T13:04:04.049Z,63.80
2018-05-10T13:06:36.460Z,46.77
2018-05-10T13:09:16.585Z,50.10
2018-05-10T13:11:53.594Z,45.60
2018-05-10T13:14:36.853Z,44.47
2018-05-10T13:17:16.092Z,46.87
2018-05-10T13:19:45.888Z,53.50
2018-05-10T13:22:15.330Z,56.80
2018-05-10T13:24:45.688Z,55.90
2018-05-10T13:27:15.237Z,60.57
2018-05-10T13:29:44.725Z,56.83
2018-05-10T13:32:14.171Z,56.60
2018-05-10T13:34:43.679Z,62.67
2018-05-10T13:37:14.384Z,62.03
2018-05-10T13:43:04.964Z,49.03
2018-05-10T13:45:35.162Z,53.03
2018-05-10T13:48:05.123Z,48.00
2018-05-10T13:50:34.539Z,48.47
2018-05-10T13:53:07.058Z,44.97
2018-05-10T13:55:36.861Z,39.97
2018-05-10T13:58:06.573Z,43.13
2018-05-10T14:00:36.385Z,44.20
2018-05-10T14:03:06.847Z,29.50
2018-05-10T14:05:40.808Z,37.50
2018-05-10T14:08:11.661Z,31.17
2018-05-10T14:10:41.348Z,33.83
2018-05-10T14:13:11.371Z,38.20
2018-05-10T14:15:41.068Z,28.90
2018-05-10T14:18:10.542Z,35.33
2018-05-10T14:20:41.360Z,40.10
2018-05-10T14:23:10.846Z,35.13
2018-05-10T14:25:40.361Z,32.10
2018-05-10T14:28:10.652Z,28.10
2018-05-10T14:30:40.166Z,29.97
2018-05-10T14:33:09.692Z,34.97
2018-05-10T14:35:40.814Z,37.47
2018-05-10T14:41:42.913Z,33.17
2018-05-10T14:44:12.484Z,28.90
2018-05-10T14:46:54.544Z,29.77
2018-05-10T14:49:25.514Z,32.90
2018-05-10T14:55:17.483Z,29.53
2018-05-10T14:57:48.061Z,24.33
2018-05-10T15:00:18.109Z,34.13
2018-05-10T15:02:47.763Z,22.10
2018-05-10T15:05:18.171Z,27.90
2018-05-10T15:07:48.712Z,30.97
2018-05-10T15:10:18.614Z,26.30
2018-05-10T15:12:48.254Z,22.30
2018-05-10T15:15:18.674Z,30.00
2018-05-10T15:17:48.477Z,40.87
2018-05-10T15:20:18.274Z,33.80
2018-05-10T15:22:47.935Z,30.30
2018-05-10T15:25:18.941Z,33.77
2018-05-10T15:31:13.409Z,33.53
2018-05-10T15:33:42.873Z,32.80
2018-05-10T15:39:44.063Z,31.00
2018-05-10T15:42:13.616Z,33.53
2018-05-10T15:44:43.194Z,33.97
2018-05-10T15:47:50.133Z,32.50
2018-05-10T15:50:19.612Z,29.27
2018-05-10T15:52:50.237Z,24.97
2018-05-10T15:55:19.874Z,31.40
2018-05-10T16:01:10.649Z,28.13
2018-05-10T16:03:41.146Z,38.03
2018-05-10T16:06:12.621Z,38.10
2018-05-10T16:08:44.186Z,33.63
2018-05-10T16:11:14.644Z,39.53
2018-05-10T16:13:45.529Z,37.37
2018-05-10T16:16:16.283Z,39.27
2018-05-10T16:18:46.193Z,37.43
2018-05-10T16:21:16.726Z,45.00
2018-05-10T16:23:47.467Z,60.40
2018-05-10T16:26:20.865Z,44.13
2018-05-10T16:29:02.653Z,45.87
2018-05-10T16:31:32.405Z,40.97
2018-05-10T16:34:02.238Z,38.92
2018-05-10T16:36:34.932Z,41.47
2018-05-10T16:39:05.449Z,47.70
2018-05-10T16:41:35.573Z,45.67
2018-05-10T16:44:05.432Z,49.63
2018-05-10T16:46:35.294Z,47.90
2018-05-10T16:49:05.997Z,32.17
2018-05-10T16:51:37.841Z,30.30
2018-05-10T16:54:07.553Z,31.60
2018-05-10T16:56:38.098Z,40.70
2018-05-10T16:59:07.760Z,39.47
2018-05-10T17:01:37.746Z,34.23
2018-05-10T17:04:10.311Z,37.10
2018-05-10T17:06:40.150Z,38.80
2018-05-10T17:09:13.756Z,32.97
2018-05-10T17:15:18.350Z,30.17
2018-05-10T17:17:48.435Z,34.58
2018-05-10T17:20:18.474Z,31.80
2018-05-10T17:22:49.638Z,32.05
2018-05-10T17:25:19.844Z,33.05
2018-05-10T17:31:14.674Z,37.30
2018-05-10T17:33:55.375Z,32.85
2018-05-10T17:36:26.924Z,40.05
2018-05-10T17:38:58.516Z,37.78
2018-05-10T17:41:45.607Z,32.05
2018-05-10T17:44:17.802Z,41.15
2018-05-10T17:46:48.476Z,32.17
2018-05-10T17:49:18.360Z,34.92
2018-05-10T17:51:48.017Z,27.42
2018-05-10T17:54:17.625Z,28.63
2018-05-10T17:56:47.168Z,30.05
2018-05-10T17:59:16.672Z,31.33
2018-05-10T18:05:08.314Z,37.00
2018-05-10T18:07:38.826Z,33.80
2018-05-10T18:10:10.417Z,31.60
2018-05-10T18:12:40.270Z,30.47
2018-05-10T18:15:10.461Z,35.67
2018-05-10T18:17:39.943Z,36.03
2018-05-10T18:20:09.393Z,30.93
2018-05-10T18:22:39.933Z,34.40
2018-05-10T18:25:10.735Z,31.67
2018-05-10T18:27:40.711Z,33.43
2018-05-10T18:30:10.654Z,28.93
2018-05-10T18:32:41.352Z,33.77
2018-05-10T18:35:11.897Z,41.13
2018-05-10T18:37:41.588Z,52.30
2018-05-10T18:40:12.177Z,40.43
2018-05-10T18:42:43.286Z,52.13
2018-05-10T18:45:14.570Z,78.63
2018-05-10T18:47:44.141Z,66.47
2018-05-10T18:50:13.626Z,40.37
2018-05-10T18:52:43.622Z,38.73
2018-05-10T18:55:13.320Z,46.63
2018-05-10T18:57:42.757Z,90.53
2018-05-10T19:00:12.274Z,47.07
2018-05-10T19:02:41.822Z,99.10
2018-05-10T19:05:11.283Z,46.60
2018-05-10T19:14:24.145Z,49.03
2018-05-10T19:16:54.650Z,59.03
2018-05-10T19:19:26.186Z,39.33
2018-05-10T19:22:04.395Z,57.67
2018-05-10T19:24:34.677Z,49.80
2018-05-10T19:27:05.186Z,49.63
2018-05-10T19:29:35.337Z,44.67
2018-05-10T19:32:05.219Z,46.50
2018-05-10T19:34:35.033Z,30.87
2018-05-10T19:37:04.842Z,44.67
2018-05-10T19:39:34.661Z,38.20
2018-05-10T19:42:12.322Z,32.80
2018-05-10T19:44:43.131Z,65.97
2018-05-10T19:47:12.980Z,33.43
2018-05-10T19:49:42.913Z,41.70
2018-05-10T19:52:14.496Z,37.53
2018-05-10T19:54:44.391Z,35.67
2018-05-10T19:57:14.463Z,72.60
2018-05-10T19:59:44.279Z,44.33
2018-05-10T20:02:14.146Z,32.03
2018-05-10T20:04:44.650Z,29.90
2018-05-10T20:07:15.124Z,31.45
2018-05-10T20:09:44.966Z,29.30
2018-05-10T20:12:14.820Z,27.73
2018-05-10T20:14:45.343Z,28.17
2018-05-10T20:17:15.472Z,29.93
2018-05-10T20:19:45.675Z,31.50
2018-05-10T20:22:16.169Z,30.87
2018-05-10T20:24:46.114Z,43.80
2018-05-10T20:27:17.133Z,55.40
2018-05-10T20:29:47.089Z,43.10
2018-05-10T20:32:17.014Z,36.13
2018-05-10T20:34:52.106Z,31.47
2018-05-10T20:37:22.412Z,30.43
2018-05-10T20:39:54.929Z,27.07
2018-05-10T20:42:25.472Z,28.83
2018-05-10T20:44:55.516Z,34.20
2018-05-10T20:47:28.994Z,34.17
2018-05-10T20:50:13.376Z,28.73
2018-05-10T20:52:43.473Z,23.90
2018-05-10T20:55:13.543Z,31.47
2018-05-10T20:57:44.208Z,52.87
2018-05-10T21:00:14.169Z,61.93
2018-05-10T21:02:44.829Z,43.47
2018-05-10T21:05:14.669Z,49.07
2018-05-10T21:07:44.627Z,45.43
2018-05-10T21:10:14.953Z,45.07
2018-05-10T21:12:44.925Z,44.53
2018-05-10T21:15:14.808Z,41.20
2018-05-10T21:17:45.963Z,52.33
2018-05-10T21:20:16.292Z,48.00
2018-05-10T21:22:47.080Z,66.80
2018-05-10T21:25:18.103Z,54.67
2018-05-10T21:27:48.153Z,47.60
2018-05-10T21:30:18.089Z,53.17
2018-05-10T21:32:48.983Z,47.80
2018-05-10T21:35:19.024Z,47.67
2018-05-10T21:37:50.171Z,55.87
2018-05-10T21:40:20.202Z,48.27
2018-05-10T21:42:50.334Z,55.43
2018-05-10T21:45:31.132Z,55.97
2018-05-10T21:48:00.928Z,60.63
2018-05-10T21:50:30.741Z,55.87
2018-05-10T21:53:00.669Z,73.20
2018-05-10T21:59:03.803Z,58.50
2018-05-10T22:01:34.058Z,48.33
2018-05-10T22:07:25.464Z,49.57
2018-05-10T22:09:55.717Z,48.50
2018-05-10T22:12:25.891Z,46.57
2018-05-10T22:14:55.866Z,53.80
2018-05-10T22:17:25.656Z,38.23
2018-05-10T22:19:55.483Z,46.67
2018-05-10T22:22:25.258Z,50.60
2018-05-10T22:24:56.913Z,43.73
2018-05-10T22:27:26.727Z,45.60
2018-05-10T22:29:56.918Z,45.03
2018-05-10T22:32:26.860Z,42.87
2018-05-10T22:34:56.631Z,42.60
2018-05-10T22:37:26.633Z,39.43
2018-05-10T22:39:57.280Z,38.27
2018-05-10T22:42:27.233Z,42.70
2018-05-10T22:44:59.905Z,44.33
2018-05-10T22:47:31.759Z,40.47
2018-05-10T22:50:02.414Z,48.70
2018-05-10T22:52:32.502Z,41.13
2018-05-10T22:55:02.262Z,48.67
2018-05-10T22:57:32.104Z,53.63
2018-05-10T23:00:01.803Z,43.70
2018-05-10T23:02:32.273Z,43.97
2018-05-10T23:05:02.013Z,41.50
2018-05-10T23:07:33.233Z,46.73
2018-05-10T23:10:03.033Z,52.67
2018-05-10T23:12:32.857Z,45.23
2018-05-10T23:15:02.962Z,54.43
2018-05-10T23:17:32.802Z,53.13
2018-05-10T23:20:02.557Z,49.23
2018-05-10T23:22:32.686Z,45.13
2018-05-10T23:25:05.863Z,51.87
2018-05-10T23:27:35.617Z,63.03
2018-05-10T23:30:05.653Z,66.60
2018-05-10T23:32:37.681Z,65.83
2018-05-10T23:35:07.838Z,75.10
2018-05-10T23:37:38.182Z,68.67
2018-05-10T23:40:16.794Z,61.50
2018-05-10T23:42:46.631Z,80.43
2018-05-10T23:45:16.569Z,63.33
2018-05-10T23:47:46.398Z,58.10
2018-05-10T23:50:17.285Z,65.90
2018-05-10T23:52:48.106Z,66.43
2018-05-10T23:55:18.088Z,70.73
2018-05-10T23:57:47.987Z,75.53
